Terminal Aerodrome Forecast
Issued by NWS

Home | Current Version | Previous Version | Text Only | Print | Product List | Glossary On
Versions: 1 2 3 4 5 6 7 8 9 10 11 12 13 14 15 16 17 18
432
FTAK31 PAJN 121750
TAFAJN
TAF
PAJN 121750Z 1218/1318 09011KT P6SM -SHRA BKN035 OVC050
     FM122000 13010G18KT P6SM -SHRA BKN035 OVC060
     FM130000 12010KT P6SM VCSH SCT035 OVC060
     FM130400 09006KT P6SM VCSH BKN040 OVC060
     FM131000 VRB03KT P6SM OVC060
     FM131700 09005KT P6SM -SHRA BKN035 OVC050=

USA.gov is the U.S. government's official web portal to all federal, state and local government web resources and services.